sensor_id;sensor_type;location;lat;lon;timestamp;temperature;humidity
12634;DHT22;6382;48.614;8.880;2024-01-16T00:00:31;-2.10;99.90
12634;DHT22;6382;48.614;8.880;2024-01-16T00:02:56;-2.10;99.90
12634;DHT22;6382;48.614;8.880;2024-01-16T00:05:22;-2.00;99.90
12634;DHT22;6382;48.614;8.880;2024-01-16T00:07:47;-2.00;99.90
12634;DHT22;6382;48.614;8.880;2024-01-16T00:10:13;-2.00;99.90
12634;DHT22;6382;48.614;8.880;2024-01-16T00:12:38;-2.00;99.90
12634;DHT22;6382;48.614;8.880;2024-01-16T00:15:05;-1.90;99.90
12634;DHT22;6382;48.614;8.880;2024-01-16T00:17:31;-1.90;99.90
12634;DHT22;6382;48.614;8.880;2024-01-16T00:19:57;-1.90;99.90
12634;DHT22;6382;48.614;8.880;2024-01-16T00:22:29;-1.90;99.90
12634;DHT22;6382;48.614;8.880;2024-01-16T00:24:54;-2.00;99.90
12634;DHT22;6382;48.614;8.880;2024-01-16T00:27:20;-2.00;99.90
12634;DHT22;6382;48.614;8.880;2024-01-16T00:29:45;-2.00;99.90
12634;DHT22;6382;48.614;8.880;2024-01-16T00:32:11;-2.00;99.90
12634;DHT22;6382;48.614;8.880;2024-01-16T00:34:41;-2.00;99.90
12634;DHT22;6382;48.614;8.880;2024-01-16T00:37:07;-2.00;99.90
12634;DHT22;6382;48.614;8.880;2024-01-16T00:39:32;-2.00;99.90
12634;DHT22;6382;48.614;8.880;2024-01-16T00:41:58;-1.90;99.90
12634;DHT22;6382;48.614;8.880;2024-01-16T00:44:24;-1.90;99.90
12634;DHT22;6382;48.614;8.880;2024-01-16T00:46:49;-1.90;99.90
12634;DHT22;6382;48.614;8.880;2024-01-16T00:49:15;-2.00;99.90
12634;DHT22;6382;48.614;8.880;2024-01-16T00:51:40;-1.90;99.90
12634;DHT22;6382;48.614;8.880;2024-01-16T00:54:06;-2.00;99.90
12634;DHT22;6382;48.614;8.880;2024-01-16T00:56:33;-1.90;99.90
12634;DHT22;6382;48.614;8.880;2024-01-16T00:58:59;-1.90;99.90
12634;DHT22;6382;48.614;8.880;2024-01-16T01:01:25;-1.90;99.90
12634;DHT22;6382;48.614;8.880;2024-01-16T01:03:51;-2.00;99.90
12634;DHT22;6382;48.614;8.880;2024-01-16T01:06:16;-2.00;99.90
12634;DHT22;6382;48.614;8.880;2024-01-16T01:08:42;-2.00;99.90
12634;DHT22;6382;48.614;8.880;2024-01-16T01:11:07;-2.00;99.90
12634;DHT22;6382;48.614;8.880;2024-01-16T01:13:33;-2.00;99.90
12634;DHT22;6382;48.614;8.880;2024-01-16T01:15:58;-2.10;99.90
12634;DHT22;6382;48.614;8.880;2024-01-16T01:18:24;-2.10;99.90
12634;DHT22;6382;48.614;8.880;2024-01-16T01:20:49;-2.00;99.90
12634;DHT22;6382;48.614;8.880;2024-01-16T01:23:15;-2.10;99.90
12634;DHT22;6382;48.614;8.880;2024-01-16T01:25:40;-2.00;99.90
12634;DHT22;6382;48.614;8.880;2024-01-16T01:28:06;-2.10;99.90
12634;DHT22;6382;48.614;8.880;2024-01-16T01:30:31;-2.10;99.90
12634;DHT22;6382;48.614;8.880;2024-01-16T01:32:57;-2.10;99.90
12634;DHT22;6382;48.614;8.880;2024-01-16T01:35:22;-2.10;99.90
12634;DHT22;6382;48.614;8.880;2024-01-16T01:37:48;-2.10;99.90
12634;DHT22;6382;48.614;8.880;2024-01-16T01:40:14;-2.20;99.90
12634;DHT22;6382;48.614;8.880;2024-01-16T01:42:41;-2.20;99.90
12634;DHT22;6382;48.614;8.880;2024-01-16T01:45:07;-2.20;99.90
12634;DHT22;6382;48.614;8.880;2024-01-16T01:47:33;-2.20;99.90
12634;DHT22;6382;48.614;8.880;2024-01-16T01:49:58;-2.30;99.90
12634;DHT22;6382;48.614;8.880;2024-01-16T01:52:39;-2.40;99.90
12634;DHT22;6382;48.614;8.880;2024-01-16T01:55:07;-2.40;99.90
12634;DHT22;6382;48.614;8.880;2024-01-16T01:57:33;-2.50;99.90
12634;DHT22;6382;48.614;8.880;2024-01-16T01:59:59;-2.60;99.90
12634;DHT22;6382;48.614;8.880;2024-01-16T02:02:24;-2.60;99.90
12634;DHT22;6382;48.614;8.880;2024-01-16T02:04:49;-2.60;99.90
12634;DHT22;6382;48.614;8.880;2024-01-16T02:07:15;-2.60;99.90
12634;DHT22;6382;48.614;8.880;2024-01-16T02:09:41;-2.60;99.90
12634;DHT22;6382;48.614;8.880;2024-01-16T02:12:07;-2.70;99.90
12634;DHT22;6382;48.614;8.880;2024-01-16T02:14:32;-2.70;99.90
12634;DHT22;6382;48.614;8.880;2024-01-16T02:16:58;-2.70;99.90
12634;DHT22;6382;48.614;8.880;2024-01-16T02:19:23;-2.70;99.90
12634;DHT22;6382;48.614;8.880;2024-01-16T02:21:51;-2.60;99.90
12634;DHT22;6382;48.614;8.880;2024-01-16T02:24:18;-2.60;99.90
12634;DHT22;6382;48.614;8.880;2024-01-16T02:26:44;-2.80;99.90
12634;DHT22;6382;48.614;8.880;2024-01-16T02:29:10;-2.90;99.90
12634;DHT22;6382;48.614;8.880;2024-01-16T02:31:35;-3.10;99.90
12634;DHT22;6382;48.614;8.880;2024-01-16T02:34:01;-3.30;99.90
12634;DHT22;6382;48.614;8.880;2024-01-16T02:36:27;-3.40;99.90
12634;DHT22;6382;48.614;8.880;2024-01-16T02:38:53;-3.50;99.90
12634;DHT22;6382;48.614;8.880;2024-01-16T02:41:18;-3.60;99.90
12634;DHT22;6382;48.614;8.880;2024-01-16T02:43:44;-3.60;99.90
12634;DHT22;6382;48.614;8.880;2024-01-16T02:46:10;-3.60;99.90
12634;DHT22;6382;48.614;8.880;2024-01-16T02:48:35;-3.60;99.90
12634;DHT22;6382;48.614;8.880;2024-01-16T02:51:01;-3.80;99.90
12634;DHT22;6382;48.614;8.880;2024-01-16T02:53:27;-3.70;99.90
12634;DHT22;6382;48.614;8.880;2024-01-16T02:55:54;-3.70;99.90
12634;DHT22;6382;48.614;8.880;2024-01-16T02:58:20;-3.70;99.90
12634;DHT22;6382;48.614;8.880;2024-01-16T03:00:45;-3.90;99.90
12634;DHT22;6382;48.614;8.880;2024-01-16T03:03:11;-4.50;99.90
12634;DHT22;6382;48.614;8.880;2024-01-16T03:05:37;-4.80;99.90
12634;DHT22;6382;48.614;8.880;2024-01-16T03:08:02;-4.80;99.90
12634;DHT22;6382;48.614;8.880;2024-01-16T03:10:28;-4.90;99.90
12634;DHT22;6382;48.614;8.880;2024-01-16T03:12:53;-4.90;99.90
12634;DHT22;6382;48.614;8.880;2024-01-16T03:15:19;-4.80;99.90
12634;DHT22;6382;48.614;8.880;2024-01-16T03:17:45;-4.90;99.90
12634;DHT22;6382;48.614;8.880;2024-01-16T03:20:11;-4.80;99.90
12634;DHT22;6382;48.614;8.880;2024-01-16T03:22:37;-4.70;99.90
12634;DHT22;6382;48.614;8.880;2024-01-16T03:25:02;-4.50;99.90
12634;DHT22;6382;48.614;8.880;2024-01-16T03:27:28;-4.30;99.90
12634;DHT22;6382;48.614;8.880;2024-01-16T03:29:53;-4.40;99.90
12634;DHT22;6382;48.614;8.880;2024-01-16T03:32:19;-4.40;99.90
12634;DHT22;6382;48.614;8.880;2024-01-16T03:34:45;-4.50;99.90
12634;DHT22;6382;48.614;8.880;2024-01-16T03:37:10;-4.60;99.90
12634;DHT22;6382;48.614;8.880;2024-01-16T03:39:36;-5.00;99.90
12634;DHT22;6382;48.614;8.880;2024-01-16T03:42:01;-5.10;99.90
12634;DHT22;6382;48.614;8.880;2024-01-16T03:44:27;-5.20;99.90
12634;DHT22;6382;48.614;8.880;2024-01-16T03:46:52;-5.20;99.90
12634;DHT22;6382;48.614;8.880;2024-01-16T03:49:17;-5.00;99.90
12634;DHT22;6382;48.614;8.880;2024-01-16T03:51:43;-4.80;99.90
12634;DHT22;6382;48.614;8.880;2024-01-16T03:54:12;-4.80;99.90
12634;DHT22;6382;48.614;8.880;2024-01-16T03:56:38;-4.70;99.90
12634;DHT22;6382;48.614;8.880;2024-01-16T03:59:04;-4.30;99.90
12634;DHT22;6382;48.614;8.880;2024-01-16T04:01:30;-4.50;99.90
12634;DHT22;6382;48.614;8.880;2024-01-16T04:03:56;-4.60;99.90
12634;DHT22;6382;48.614;8.880;2024-01-16T04:06:21;-4.60;99.90
12634;DHT22;6382;48.614;8.880;2024-01-16T04:08:46;-4.50;99.90
12634;DHT22;6382;48.614;8.880;2024-01-16T04:11:12;-4.50;99.90
12634;DHT22;6382;48.614;8.880;2024-01-16T04:13:38;-4.60;99.90
12634;DHT22;6382;48.614;8.880;2024-01-16T04:16:04;-4.90;99.90
12634;DHT22;6382;48.614;8.880;2024-01-16T04:18:29;-5.10;99.90
12634;DHT22;6382;48.614;8.880;2024-01-16T04:20:58;-5.20;99.90
12634;DHT22;6382;48.614;8.880;2024-01-16T04:23:23;-4.90;99.90
12634;DHT22;6382;48.614;8.880;2024-01-16T04:25:49;-5.10;99.90
12634;DHT22;6382;48.614;8.880;2024-01-16T04:28:14;-5.30;99.90
12634;DHT22;6382;48.614;8.880;2024-01-16T04:30:40;-5.60;99.90
12634;DHT22;6382;48.614;8.880;2024-01-16T04:33:06;-6.10;99.90
12634;DHT22;6382;48.614;8.880;2024-01-16T04:35:31;-6.30;99.90
12634;DHT22;6382;48.614;8.880;2024-01-16T04:37:57;-6.20;99.90
12634;DHT22;6382;48.614;8.880;2024-01-16T04:40:22;-6.30;99.90
12634;DHT22;6382;48.614;8.880;2024-01-16T04:42:48;-6.10;99.90
12634;DHT22;6382;48.614;8.880;2024-01-16T04:45:13;-6.10;99.90
12634;DHT22;6382;48.614;8.880;2024-01-16T04:47:39;-6.00;99.90
12634;DHT22;6382;48.614;8.880;2024-01-16T04:50:04;-5.80;99.90
12634;DHT22;6382;48.614;8.880;2024-01-16T04:52:30;-5.80;99.90
12634;DHT22;6382;48.614;8.880;2024-01-16T04:54:55;-5.60;99.90
12634;DHT22;6382;48.614;8.880;2024-01-16T04:57:20;-5.60;99.90
12634;DHT22;6382;48.614;8.880;2024-01-16T04:59:46;-5.70;99.90
12634;DHT22;6382;48.614;8.880;2024-01-16T05:02:11;-5.80;99.90
12634;DHT22;6382;48.614;8.880;2024-01-16T05:04:38;-6.10;99.90
12634;DHT22;6382;48.614;8.880;2024-01-16T05:07:03;-6.20;99.90
12634;DHT22;6382;48.614;8.880;2024-01-16T05:09:29;-6.30;99.90
12634;DHT22;6382;48.614;8.880;2024-01-16T05:11:55;-6.20;99.90
12634;DHT22;6382;48.614;8.880;2024-01-16T05:14:20;-6.60;99.90
12634;DHT22;6382;48.614;8.880;2024-01-16T05:16:50;-6.50;99.90
12634;DHT22;6382;48.614;8.880;2024-01-16T05:19:15;-6.50;99.90
12634;DHT22;6382;48.614;8.880;2024-01-16T05:21:41;-6.90;99.90
12634;DHT22;6382;48.614;8.880;2024-01-16T05:24:07;-7.30;99.90
12634;DHT22;6382;48.614;8.880;2024-01-16T05:26:33;-7.40;99.90
12634;DHT22;6382;48.614;8.880;2024-01-16T05:28:58;-7.60;99.90
12634;DHT22;6382;48.614;8.880;2024-01-16T05:31:24;-7.70;99.90
12634;DHT22;6382;48.614;8.880;2024-01-16T05:33:49;-7.60;99.90
12634;DHT22;6382;48.614;8.880;2024-01-16T05:36:15;-7.70;99.90
12634;DHT22;6382;48.614;8.880;2024-01-16T05:38:40;-7.70;99.90
12634;DHT22;6382;48.614;8.880;2024-01-16T05:41:06;-7.60;99.90
12634;DHT22;6382;48.614;8.880;2024-01-16T05:43:31;-7.40;99.90
12634;DHT22;6382;48.614;8.880;2024-01-16T05:45:57;-7.20;99.90
12634;DHT22;6382;48.614;8.880;2024-01-16T05:48:22;-7.10;99.90
12634;DHT22;6382;48.614;8.880;2024-01-16T05:50:48;-7.00;99.90
12634;DHT22;6382;48.614;8.880;2024-01-16T05:53:13;-6.60;99.90
12634;DHT22;6382;48.614;8.880;2024-01-16T05:55:39;-6.40;99.90
12634;DHT22;6382;48.614;8.880;2024-01-16T05:58:04;-6.20;99.90
12634;DHT22;6382;48.614;8.880;2024-01-16T06:00:30;-6.10;99.90
12634;DHT22;6382;48.614;8.880;2024-01-16T06:02:56;-5.90;99.90
12634;DHT22;6382;48.614;8.880;2024-01-16T06:05:21;-5.80;99.90
12634;DHT22;6382;48.614;8.880;2024-01-16T06:07:47;-5.70;99.90
12634;DHT22;6382;48.614;8.880;2024-01-16T06:10:12;-5.60;99.90
12634;DHT22;6382;48.614;8.880;2024-01-16T06:12:39;-5.60;99.90
12634;DHT22;6382;48.614;8.880;2024-01-16T06:15:04;-5.60;99.90
12634;DHT22;6382;48.614;8.880;2024-01-16T06:17:30;-5.40;99.90
12634;DHT22;6382;48.614;8.880;2024-01-16T06:19:55;-5.40;99.90
12634;DHT22;6382;48.614;8.880;2024-01-16T06:22:21;-5.50;99.90
12634;DHT22;6382;48.614;8.880;2024-01-16T06:24:46;-5.50;99.90
12634;DHT22;6382;48.614;8.880;2024-01-16T06:27:12;-5.50;99.90
12634;DHT22;6382;48.614;8.880;2024-01-16T06:29:44;-5.50;99.90
12634;DHT22;6382;48.614;8.880;2024-01-16T06:32:10;-5.40;99.90
12634;DHT22;6382;48.614;8.880;2024-01-16T06:34:35;-5.30;99.90
12634;DHT22;6382;48.614;8.880;2024-01-16T06:37:01;-5.30;99.90
12634;DHT22;6382;48.614;8.880;2024-01-16T06:39:26;-5.20;99.90
12634;DHT22;6382;48.614;8.880;2024-01-16T06:41:52;-5.20;99.90
12634;DHT22;6382;48.614;8.880;2024-01-16T06:44:18;-5.10;99.90
12634;DHT22;6382;48.614;8.880;2024-01-16T06:46:43;-5.10;99.90
12634;DHT22;6382;48.614;8.880;2024-01-16T06:49:09;-5.10;99.90
12634;DHT22;6382;48.614;8.880;2024-01-16T06:51:35;-5.20;99.90
12634;DHT22;6382;48.614;8.880;2024-01-16T06:54:00;-5.10;99.90
12634;DHT22;6382;48.614;8.880;2024-01-16T06:56:26;-5.10;99.90
12634;DHT22;6382;48.614;8.880;2024-01-16T06:58:52;-5.10;99.90
12634;DHT22;6382;48.614;8.880;2024-01-16T07:01:18;-5.00;99.90
12634;DHT22;6382;48.614;8.880;2024-01-16T07:03:43;-5.00;99.90
12634;DHT22;6382;48.614;8.880;2024-01-16T07:06:09;-4.90;99.90
12634;DHT22;6382;48.614;8.880;2024-01-16T07:08:34;-4.80;99.90
12634;DHT22;6382;48.614;8.880;2024-01-16T07:11:01;-4.70;99.90
12634;DHT22;6382;48.614;8.880;2024-01-16T07:13:26;-4.80;99.90
12634;DHT22;6382;48.614;8.880;2024-01-16T07:15:52;-4.80;99.90
12634;DHT22;6382;48.614;8.880;2024-01-16T07:18:17;-4.80;99.90
12634;DHT22;6382;48.614;8.880;2024-01-16T07:20:43;-4.80;99.90
12634;DHT22;6382;48.614;8.880;2024-01-16T07:23:10;-4.70;99.90
12634;DHT22;6382;48.614;8.880;2024-01-16T07:25:36;-4.70;99.90
12634;DHT22;6382;48.614;8.880;2024-01-16T07:28:01;-4.60;99.90
12634;DHT22;6382;48.614;8.880;2024-01-16T07:30:27;-4.70;99.90
12634;DHT22;6382;48.614;8.880;2024-01-16T07:32:52;-4.70;99.90
12634;DHT22;6382;48.614;8.880;2024-01-16T07:35:19;-4.60;99.90
12634;DHT22;6382;48.614;8.880;2024-01-16T07:37:44;-4.60;99.90
12634;DHT22;6382;48.614;8.880;2024-01-16T07:40:10;-4.50;99.90
12634;DHT22;6382;48.614;8.880;2024-01-16T07:42:37;-4.70;99.90
12634;DHT22;6382;48.614;8.880;2024-01-16T07:45:03;-4.60;99.90
12634;DHT22;6382;48.614;8.880;2024-01-16T07:47:32;-4.60;99.90
12634;DHT22;6382;48.614;8.880;2024-01-16T07:49:58;-4.50;99.90
12634;DHT22;6382;48.614;8.880;2024-01-16T07:52:24;-4.50;99.90
12634;DHT22;6382;48.614;8.880;2024-01-16T07:54:49;-4.50;99.90
12634;DHT22;6382;48.614;8.880;2024-01-16T07:57:15;-4.30;99.90
12634;DHT22;6382;48.614;8.880;2024-01-16T07:59:40;-4.40;99.90
12634;DHT22;6382;48.614;8.880;2024-01-16T08:02:06;-4.40;99.90
12634;DHT22;6382;48.614;8.880;2024-01-16T08:04:31;-4.40;99.90
12634;DHT22;6382;48.614;8.880;2024-01-16T08:06:57;-3.40;99.90
12634;DHT22;6382;48.614;8.880;2024-01-16T08:09:23;-4.30;99.90
12634;DHT22;6382;48.614;8.880;2024-01-16T08:11:48;-4.20;99.90
12634;DHT22;6382;48.614;8.880;2024-01-16T08:14:14;-4.10;99.90
12634;DHT22;6382;48.614;8.880;2024-01-16T08:16:39;-4.10;99.90
12634;DHT22;6382;48.614;8.880;2024-01-16T08:19:04;-4.00;99.90
12634;DHT22;6382;48.614;8.880;2024-01-16T08:21:30;-4.00;99.90
12634;DHT22;6382;48.614;8.880;2024-01-16T08:23:55;-3.90;99.90
12634;DHT22;6382;48.614;8.880;2024-01-16T08:26:21;-3.80;99.90
12634;DHT22;6382;48.614;8.880;2024-01-16T08:28:46;-3.80;99.90
12634;DHT22;6382;48.614;8.880;2024-01-16T08:31:12;-3.80;99.90
12634;DHT22;6382;48.614;8.880;2024-01-16T08:33:37;-3.90;99.90
12634;DHT22;6382;48.614;8.880;2024-01-16T08:36:03;-3.80;99.90
12634;DHT22;6382;48.614;8.880;2024-01-16T08:38:29;-3.80;99.90
12634;DHT22;6382;48.614;8.880;2024-01-16T08:40:55;-3.70;99.90
12634;DHT22;6382;48.614;8.880;2024-01-16T08:43:20;-3.80;99.90
12634;DHT22;6382;48.614;8.880;2024-01-16T08:45:46;-3.90;99.90
12634;DHT22;6382;48.614;8.880;2024-01-16T08:48:13;-4.00;99.90
12634;DHT22;6382;48.614;8.880;2024-01-16T08:50:40;-4.00;99.90
12634;DHT22;6382;48.614;8.880;2024-01-16T08:53:05;-4.10;99.90
12634;DHT22;6382;48.614;8.880;2024-01-16T08:55:32;-4.20;99.90
12634;DHT22;6382;48.614;8.880;2024-01-16T08:57:57;-4.10;99.90
12634;DHT22;6382;48.614;8.880;2024-01-16T09:00:23;-4.10;99.90
12634;DHT22;6382;48.614;8.880;2024-01-16T09:02:48;-3.90;99.90
12634;DHT22;6382;48.614;8.880;2024-01-16T09:05:14;-4.00;99.90
12634;DHT22;6382;48.614;8.880;2024-01-16T09:07:40;-4.00;99.90
12634;DHT22;6382;48.614;8.880;2024-01-16T09:10:06;-4.00;99.90
12634;DHT22;6382;48.614;8.880;2024-01-16T09:12:32;-4.00;99.90
12634;DHT22;6382;48.614;8.880;2024-01-16T09:14:57;-3.80;99.90
12634;DHT22;6382;48.614;8.880;2024-01-16T09:17:24;-3.80;99.90
12634;DHT22;6382;48.614;8.880;2024-01-16T09:19:50;-3.80;99.90
12634;DHT22;6382;48.614;8.880;2024-01-16T09:22:16;-3.70;99.90
12634;DHT22;6382;48.614;8.880;2024-01-16T09:24:42;-3.60;99.90
12634;DHT22;6382;48.614;8.880;2024-01-16T09:27:07;-3.50;99.90
12634;DHT22;6382;48.614;8.880;2024-01-16T09:29:38;-3.40;99.90
12634;DHT22;6382;48.614;8.880;2024-01-16T09:32:03;-3.20;99.90
12634;DHT22;6382;48.614;8.880;2024-01-16T09:34:29;-3.10;99.90
12634;DHT22;6382;48.614;8.880;2024-01-16T09:36:55;-2.90;99.90
12634;DHT22;6382;48.614;8.880;2024-01-16T09:39:24;-1.90;99.90
12634;DHT22;6382;48.614;8.880;2024-01-16T09:41:50;-2.60;99.90
12634;DHT22;6382;48.614;8.880;2024-01-16T09:44:15;-2.50;99.90
12634;DHT22;6382;48.614;8.880;2024-01-16T09:46:41;-2.30;99.90
12634;DHT22;6382;48.614;8.880;2024-01-16T09:49:08;-2.10;99.90
12634;DHT22;6382;48.614;8.880;2024-01-16T09:51:34;-2.10;99.90
12634;DHT22;6382;48.614;8.880;2024-01-16T09:53:59;-2.10;99.90
12634;DHT22;6382;48.614;8.880;2024-01-16T09:56:27;-2.10;99.90
12634;DHT22;6382;48.614;8.880;2024-01-16T09:58:56;-2.10;99.90
12634;DHT22;6382;48.614;8.880;2024-01-16T10:01:22;-2.10;99.90
12634;DHT22;6382;48.614;8.880;2024-01-16T10:03:48;-2.10;99.90
12634;DHT22;6382;48.614;8.880;2024-01-16T10:06:13;-2.20;99.90
12634;DHT22;6382;48.614;8.880;2024-01-16T10:08:40;-2.20;99.90
12634;DHT22;6382;48.614;8.880;2024-01-16T10:11:06;-2.10;99.90
12634;DHT22;6382;48.614;8.880;2024-01-16T10:13:32;-2.00;99.90
12634;DHT22;6382;48.614;8.880;2024-01-16T10:15:58;-2.10;99.90
12634;DHT22;6382;48.614;8.880;2024-01-16T10:18:25;-2.20;99.90
12634;DHT22;6382;48.614;8.880;2024-01-16T10:20:50;-2.30;99.90
12634;DHT22;6382;48.614;8.880;2024-01-16T10:23:22;-2.50;99.90
12634;DHT22;6382;48.614;8.880;2024-01-16T10:26:04;-2.50;99.90
12634;DHT22;6382;48.614;8.880;2024-01-16T10:28:29;-2.70;99.90
12634;DHT22;6382;48.614;8.880;2024-01-16T10:31:04;-2.20;99.90
12634;DHT22;6382;48.614;8.880;2024-01-16T10:33:30;-2.80;99.90
12634;DHT22;6382;48.614;8.880;2024-01-16T10:38:35;-2.70;99.90
12634;DHT22;6382;48.614;8.880;2024-01-16T10:41:08;-2.60;99.90
12634;DHT22;6382;48.614;8.880;2024-01-16T10:43:34;-2.70;99.90
12634;DHT22;6382;48.614;8.880;2024-01-16T10:46:15;-2.70;99.90
12634;DHT22;6382;48.614;8.880;2024-01-16T10:48:42;-2.80;99.90
12634;DHT22;6382;48.614;8.880;2024-01-16T10:51:09;-2.90;99.90
12634;DHT22;6382;48.614;8.880;2024-01-16T10:53:37;-2.90;99.90
12634;DHT22;6382;48.614;8.880;2024-01-16T10:56:02;-2.80;99.90
12634;DHT22;6382;48.614;8.880;2024-01-16T10:58:32;-2.80;99.90
12634;DHT22;6382;48.614;8.880;2024-01-16T11:00:57;-2.80;99.90
12634;DHT22;6382;48.614;8.880;2024-01-16T11:03:38;-2.70;99.90
12634;DHT22;6382;48.614;8.880;2024-01-16T11:06:05;-2.60;99.90
12634;DHT22;6382;48.614;8.880;2024-01-16T11:08:31;-2.50;99.90
12634;DHT22;6382;48.614;8.880;2024-01-16T11:10:59;-2.40;99.90
12634;DHT22;6382;48.614;8.880;2024-01-16T11:13:25;-2.30;99.90
12634;DHT22;6382;48.614;8.880;2024-01-16T11:15:50;-2.20;99.90
12634;DHT22;6382;48.614;8.880;2024-01-16T11:18:16;-2.10;99.90
12634;DHT22;6382;48.614;8.880;2024-01-16T11:20:41;-2.10;99.90
12634;DHT22;6382;48.614;8.880;2024-01-16T11:23:08;-2.00;99.90
12634;DHT22;6382;48.614;8.880;2024-01-16T11:25:34;-2.00;99.90
12634;DHT22;6382;48.614;8.880;2024-01-16T11:28:09;-2.10;99.90
12634;DHT22;6382;48.614;8.880;2024-01-16T11:30:38;-2.10;99.90
12634;DHT22;6382;48.614;8.880;2024-01-16T11:33:04;-2.10;99.90
12634;DHT22;6382;48.614;8.880;2024-01-16T11:35:36;-2.00;99.90
12634;DHT22;6382;48.614;8.880;2024-01-16T11:38:03;-2.10;99.90
12634;DHT22;6382;48.614;8.880;2024-01-16T11:40:31;-2.10;99.90
12634;DHT22;6382;48.614;8.880;2024-01-16T11:42:57;-2.10;99.90
12634;DHT22;6382;48.614;8.880;2024-01-16T11:48:10;-1.90;99.90
12634;DHT22;6382;48.614;8.880;2024-01-16T11:50:35;-1.80;99.90
12634;DHT22;6382;48.614;8.880;2024-01-16T11:53:01;-1.60;99.90
12634;DHT22;6382;48.614;8.880;2024-01-16T11:55:27;-1.60;99.90
12634;DHT22;6382;48.614;8.880;2024-01-16T11:57:59;-1.70;99.90
12634;DHT22;6382;48.614;8.880;2024-01-16T12:00:32;-1.70;99.90
12634;DHT22;6382;48.614;8.880;2024-01-16T12:02:58;-1.60;99.90
12634;DHT22;6382;48.614;8.880;2024-01-16T12:05:26;-1.60;99.90
12634;DHT22;6382;48.614;8.880;2024-01-16T12:07:52;-1.60;99.90
12634;DHT22;6382;48.614;8.880;2024-01-16T12:10:18;-1.50;99.90
12634;DHT22;6382;48.614;8.880;2024-01-16T12:12:44;-1.50;99.90
12634;DHT22;6382;48.614;8.880;2024-01-16T12:15:14;-1.50;99.90
12634;DHT22;6382;48.614;8.880;2024-01-16T12:20:37;-1.20;99.90
12634;DHT22;6382;48.614;8.880;2024-01-16T12:23:03;-1.10;99.90
12634;DHT22;6382;48.614;8.880;2024-01-16T12:25:29;-0.90;99.90
12634;DHT22;6382;48.614;8.880;2024-01-16T12:30:23;-0.90;99.90
12634;DHT22;6382;48.614;8.880;2024-01-16T12:32:48;-0.80;99.90
12634;DHT22;6382;48.614;8.880;2024-01-16T12:35:21;-0.80;99.90
12634;DHT22;6382;48.614;8.880;2024-01-16T12:37:59;-0.90;99.90
12634;DHT22;6382;48.614;8.880;2024-01-16T12:40:25;-0.80;99.90
12634;DHT22;6382;48.614;8.880;2024-01-16T12:42:51;-0.90;99.90
12634;DHT22;6382;48.614;8.880;2024-01-16T12:47:52;-0.90;99.90
12634;DHT22;6382;48.614;8.880;2024-01-16T12:50:25;-0.80;99.90
12634;DHT22;6382;48.614;8.880;2024-01-16T12:55:26;-0.70;99.90
12634;DHT22;6382;48.614;8.880;2024-01-16T13:00:36;-0.70;99.90
12634;DHT22;6382;48.614;8.880;2024-01-16T13:03:01;-0.70;99.90
12634;DHT22;6382;48.614;8.880;2024-01-16T13:05:27;-0.80;99.90
12634;DHT22;6382;48.614;8.880;2024-01-16T13:07:59;-0.70;99.90
12634;DHT22;6382;48.614;8.880;2024-01-16T13:10:24;-0.80;99.90
12634;DHT22;6382;48.614;8.880;2024-01-16T13:12:50;-0.80;99.90
12634;DHT22;6382;48.614;8.880;2024-01-16T13:15:15;-0.80;99.90
12634;DHT22;6382;48.614;8.880;2024-01-16T13:17:42;-0.80;99.90
12634;DHT22;6382;48.614;8.880;2024-01-16T13:20:07;-0.80;99.90
12634;DHT22;6382;48.614;8.880;2024-01-16T13:22:35;-0.80;99.90
12634;DHT22;6382;48.614;8.880;2024-01-16T13:25:01;-0.60;99.90
12634;DHT22;6382;48.614;8.880;2024-01-16T13:27:26;-0.80;99.90
12634;DHT22;6382;48.614;8.880;2024-01-16T13:29:54;-0.80;99.90
12634;DHT22;6382;48.614;8.880;2024-01-16T13:32:20;-0.70;99.90
12634;DHT22;6382;48.614;8.880;2024-01-16T13:34:45;-0.70;99.90
12634;DHT22;6382;48.614;8.880;2024-01-16T13:37:20;-0.70;99.90
12634;DHT22;6382;48.614;8.880;2024-01-16T13:39:47;-0.60;99.90
12634;DHT22;6382;48.614;8.880;2024-01-16T13:42:22;-0.60;99.90
12634;DHT22;6382;48.614;8.880;2024-01-16T13:44:47;-0.60;99.90
12634;DHT22;6382;48.614;8.880;2024-01-16T13:47:14;-0.60;99.90
12634;DHT22;6382;48.614;8.880;2024-01-16T13:49:40;-0.60;99.90
12634;DHT22;6382;48.614;8.880;2024-01-16T13:52:05;-0.50;99.90
12634;DHT22;6382;48.614;8.880;2024-01-16T13:54:31;-0.40;99.90
12634;DHT22;6382;48.614;8.880;2024-01-16T13:56:56;-0.40;99.90
12634;DHT22;6382;48.614;8.880;2024-01-16T13:59:22;-0.30;99.90
12634;DHT22;6382;48.614;8.880;2024-01-16T14:01:47;-0.30;99.90
12634;DHT22;6382;48.614;8.880;2024-01-16T14:04:13;-0.30;99.90
12634;DHT22;6382;48.614;8.880;2024-01-16T14:06:38;-0.20;99.90
12634;DHT22;6382;48.614;8.880;2024-01-16T14:09:04;-0.20;99.90
12634;DHT22;6382;48.614;8.880;2024-01-16T14:11:32;-0.20;99.90
12634;DHT22;6382;48.614;8.880;2024-01-16T14:13:58;-0.10;99.90
12634;DHT22;6382;48.614;8.880;2024-01-16T14:16:27;-0.10;99.90
12634;DHT22;6382;48.614;8.880;2024-01-16T14:18:53;-0.10;99.90
12634;DHT22;6382;48.614;8.880;2024-01-16T14:21:18;-0.10;99.90
12634;DHT22;6382;48.614;8.880;2024-01-16T14:23:44;-0.10;99.90
12634;DHT22;6382;48.614;8.880;2024-01-16T14:26:09;-0.10;99.90
12634;DHT22;6382;48.614;8.880;2024-01-16T14:28:34;-0.10;99.90
12634;DHT22;6382;48.614;8.880;2024-01-16T14:31:00;-0.20;99.90
12634;DHT22;6382;48.614;8.880;2024-01-16T14:33:26;-0.20;99.90
12634;DHT22;6382;48.614;8.880;2024-01-16T14:35:51;-0.30;99.90
12634;DHT22;6382;48.614;8.880;2024-01-16T14:38:17;-0.30;99.90
12634;DHT22;6382;48.614;8.880;2024-01-16T14:40:42;-0.30;99.90
12634;DHT22;6382;48.614;8.880;2024-01-16T14:43:08;-0.30;99.90
12634;DHT22;6382;48.614;8.880;2024-01-16T14:45:34;-0.40;99.90
12634;DHT22;6382;48.614;8.880;2024-01-16T14:47:59;-0.40;99.90
12634;DHT22;6382;48.614;8.880;2024-01-16T14:50:25;-0.40;99.90
12634;DHT22;6382;48.614;8.880;2024-01-16T14:52:51;-0.40;99.90
12634;DHT22;6382;48.614;8.880;2024-01-16T14:55:16;-0.50;99.90
12634;DHT22;6382;48.614;8.880;2024-01-16T14:57:42;-0.50;99.90
12634;DHT22;6382;48.614;8.880;2024-01-16T15:00:12;-0.60;99.90
12634;DHT22;6382;48.614;8.880;2024-01-16T15:02:45;-0.60;99.90
12634;DHT22;6382;48.614;8.880;2024-01-16T15:05:12;-0.60;99.90
12634;DHT22;6382;48.614;8.880;2024-01-16T15:07:38;-0.70;99.90
12634;DHT22;6382;48.614;8.880;2024-01-16T15:10:06;-0.70;99.90
12634;DHT22;6382;48.614;8.880;2024-01-16T15:12:38;-0.70;99.90
12634;DHT22;6382;48.614;8.880;2024-01-16T15:15:05;-0.80;99.90
12634;DHT22;6382;48.614;8.880;2024-01-16T15:17:32;-0.80;99.90
12634;DHT22;6382;48.614;8.880;2024-01-16T15:19:58;-0.90;99.90
12634;DHT22;6382;48.614;8.880;2024-01-16T15:22:23;-1.00;99.90
12634;DHT22;6382;48.614;8.880;2024-01-16T15:24:49;-1.00;99.90
12634;DHT22;6382;48.614;8.880;2024-01-16T15:27:14;-1.00;99.90
12634;DHT22;6382;48.614;8.880;2024-01-16T15:29:40;-1.10;99.90
12634;DHT22;6382;48.614;8.880;2024-01-16T15:32:06;-1.20;99.90
12634;DHT22;6382;48.614;8.880;2024-01-16T15:34:32;-1.20;99.90
12634;DHT22;6382;48.614;8.880;2024-01-16T15:36:58;-1.30;99.90
12634;DHT22;6382;48.614;8.880;2024-01-16T15:39:24;-1.40;99.90
12634;DHT22;6382;48.614;8.880;2024-01-16T15:41:49;-1.50;99.90
12634;DHT22;6382;48.614;8.880;2024-01-16T15:44:15;-1.50;99.90
12634;DHT22;6382;48.614;8.880;2024-01-16T15:46:59;-1.60;99.90
12634;DHT22;6382;48.614;8.880;2024-01-16T15:49:25;-1.70;99.90
12634;DHT22;6382;48.614;8.880;2024-01-16T15:51:51;-1.80;99.90
12634;DHT22;6382;48.614;8.880;2024-01-16T15:54:17;-1.80;99.90
12634;DHT22;6382;48.614;8.880;2024-01-16T15:56:42;-2.00;99.90